Time;durP1;ratioP1;P1;durP2;ratioP2;P2;SDS_P1;SDS_P2;PMS_P1;PMS_P2;Temp;Humidity;BMP_temperature;BMP_pressure;BME280_temperature;BME280_humidity;BME280_pressure;Samples;Min_cycle;Max_cycle;Signal;HPM_P1;HPM_P2
2021/03/23 00:02:24;;;;;;;;;;;;;;;22.21;21.88;97190.31;5061937;28;595;-76
2021/03/23 00:04:49;;;;;;;;;;;;;;;22.83;20.91;97196.50;5061656;28;650;-77
2021/03/23 00:07:15;;;;;;;;;;;;;;;22.36;21.31;97192.06;5061854;28;1070;-76
2021/03/23 00:09:40;;;;;;;;;;;;;;;21.87;21.78;97189.25;5060811;28;1882;-76
2021/03/23 00:12:06;;;;;;;;;;;;;;;21.58;22.36;97189.59;5060961;28;1004;-76
2021/03/23 00:14:31;;;;;;;;;;;;;;;21.66;22.63;97196.56;5061670;28;607;-77
2021/03/23 00:16:57;;;;;;;;;;;;;;;22.76;20.95;97191.16;5062002;28;682;-77
2021/03/23 00:19:22;;;;;;;;;;;;;;;22.60;20.95;97186.59;5061359;28;638;-77
2021/03/23 00:21:48;;;;;;;;;;;;;;;22.00;21.74;97191.94;5061545;28;836;-76
2021/03/23 00:24:13;;;;;;;;;;;;;;;21.94;22.16;97194.59;5061002;28;864;-76
2021/03/23 00:26:39;;;;;;;;;;;;;;;21.90;22.34;97193.97;5062095;28;941;-77
2021/03/23 00:29:04;;;;;;;;;;;;;;;22.24;21.76;97210.00;5043424;28;1967;-76
2021/03/23 00:31:31;;;;;;;;;;;;;;;22.52;21.42;97205.16;5061986;28;666;-77
2021/03/23 00:33:57;;;;;;;;;;;;;;;22.73;20.92;97208.34;5026812;28;831;-75
2021/03/23 00:36:23;;;;;;;;;;;;;;;22.25;21.35;97203.06;5065438;28;918;-77
2021/03/23 00:38:48;;;;;;;;;;;;;;;21.85;22.13;97203.84;5047324;28;914;-77
2021/03/23 00:41:14;;;;;;;;;;;;;;;21.53;22.65;97207.16;5032169;28;878;-77
2021/03/23 00:43:40;;;;;;;;;;;;;;;21.99;22.11;97213.03;5064966;28;619;-77
2021/03/23 00:46:05;;;;;;;;;;;;;;;22.38;21.54;97208.59;5048732;28;607;-77
2021/03/23 00:48:30;;;;;;;;;;;;;;;22.58;21.16;97208.94;5064470;28;859;-77
2021/03/23 00:50:56;;;;;;;;;;;;;;;22.53;21.52;97203.09;5048333;28;1971;-76
2021/03/23 00:53:22;;;;;;;;;;;;;;;22.53;21.20;97203.09;5064492;28;1075;-77
2021/03/23 00:55:47;;;;;;;;;;;;;;;22.15;21.60;97209.97;5065902;28;622;-76
2021/03/23 00:58:12;;;;;;;;;;;;;;;21.87;21.99;97208.28;5047057;28;1292;-76
2021/03/23 01:00:38;;;;;;;;;;;;;;;21.28;22.68;97193.94;5065302;28;683;-77
2021/03/23 01:03:04;;;;;;;;;;;;;;;21.85;22.37;97203.06;5064636;28;908;-76
2021/03/23 01:05:29;;;;;;;;;;;;;;;22.92;20.85;97214.84;5064931;28;890;-76
2021/03/23 01:07:55;;;;;;;;;;;;;;;23.03;20.42;97215.13;5047968;28;941;-77
2021/03/23 01:10:21;;;;;;;;;;;;;;;22.17;21.59;97207.44;5047656;28;1997;-77
2021/03/23 01:12:46;;;;;;;;;;;;;;;22.23;21.68;97205.59;5065266;28;631;-77
2021/03/23 01:15:12;;;;;;;;;;;;;;;21.89;22.38;97208.59;5064733;28;670;-77
2021/03/23 01:17:38;;;;;;;;;;;;;;;22.10;21.72;97204.88;5047085;28;1060;-77
2021/03/23 01:20:04;;;;;;;;;;;;;;;21.20;23.10;97209.63;5064101;28;904;-77
2021/03/23 01:22:30;;;;;;;;;;;;;;;22.10;21.92;97216.22;5047656;28;1086;-77
2021/03/23 01:24:55;;;;;;;;;;;;;;;22.11;21.97;97229.16;5064545;28;631;-76
2021/03/23 01:27:20;;;;;;;;;;;;;;;20.99;23.32;97228.19;5064991;28;934;-77
2021/03/23 01:29:46;;;;;;;;;;;;;;;21.95;21.91;97229.38;5063653;28;1948;-76
2021/03/23 01:32:11;;;;;;;;;;;;;;;22.02;21.92;97238.41;5065007;28;865;-77
2021/03/23 01:34:37;;;;;;;;;;;;;;;20.87;23.68;97238.28;5063905;28;892;-76
2021/03/23 01:37:02;;;;;;;;;;;;;;;21.68;22.56;97245.00;5064987;28;607;-76
2021/03/23 01:39:28;;;;;;;;;;;;;;;22.96;20.69;97238.16;5063865;28;699;-76
2021/03/23 01:41:53;;;;;;;;;;;;;;;22.38;21.37;97250.31;5064438;28;726;-77
2021/03/23 01:44:18;;;;;;;;;;;;;;;21.80;22.09;97248.97;5063352;28;842;-76
2021/03/23 01:46:44;;;;;;;;;;;;;;;22.01;21.86;97250.97;5063247;28;884;-76
2021/03/23 01:49:12;;;;;;;;;;;;;;;22.15;21.78;97249.63;5063735;28;1878;-76
2021/03/23 01:51:38;;;;;;;;;;;;;;;21.04;23.10;97236.06;5047178;28;1334;-76
2021/03/23 01:54:14;;;;;;;;;;;;;;;21.11;23.21;97238.63;5046279;28;660;-77
2021/03/23 01:56:39;;;;;;;;;;;;;;;22.45;21.54;97241.53;5046796;28;948;-76
2021/03/23 01:59:05;;;;;;;;;;;;;;;22.61;21.25;97246.91;5045812;28;795;-77
2021/03/23 02:01:30;;;;;;;;;;;;;;;22.55;21.35;97243.13;5064115;28;678;-76
2021/03/23 02:03:56;;;;;;;;;;;;;;;22.27;21.42;97240.22;5046359;28;821;-76
2021/03/23 02:06:42;;;;;;;;;;;;;;;21.96;21.92;97237.41;5047179;28;624;-77
2021/03/23 02:09:10;;;;;;;;;;;;;;;21.86;22.22;97249.94;5046039;28;1906;-77
2021/03/23 02:11:36;;;;;;;;;;;;;;;21.90;22.06;97244.16;5046798;28;885;-77
2021/03/23 02:14:02;;;;;;;;;;;;;;;21.28;22.71;97244.88;5046012;28;900;-77
2021/03/23 02:16:27;;;;;;;;;;;;;;;22.42;21.66;97228.28;5063965;28;817;-76
2021/03/23 02:18:53;;;;;;;;;;;;;;;22.61;21.24;97232.75;5063030;28;645;-77
2021/03/23 02:21:19;;;;;;;;;;;;;;;22.62;21.39;97231.47;5063864;28;694;-77
2021/03/23 02:23:54;;;;;;;;;;;;;;;22.43;21.49;97229.88;5045803;28;607;-77
2021/03/23 02:26:21;;;;;;;;;;;;;;;21.99;21.72;97227.19;5029855;28;1253;-77
2021/03/23 02:28:53;;;;;;;;;;;;;;;21.89;21.90;97234.09;5062463;28;857;-77
2021/03/23 02:31:20;;;;;;;;;;;;;;;21.91;22.05;97240.84;5063821;28;1926;-77
2021/03/23 02:33:45;;;;;;;;;;;;;;;21.60;22.53;97238.03;5045441;28;832;-76
2021/03/23 02:36:11;;;;;;;;;;;;;;;21.74;22.42;97242.34;5063928;28;762;-78
2021/03/23 02:38:36;;;;;;;;;;;;;;;21.96;22.02;97253.63;5062565;28;926;-77
2021/03/23 02:41:02;;;;;;;;;;;;;;;22.44;21.30;97254.94;5063537;28;880;-76
2021/03/23 02:43:27;;;;;;;;;;;;;;;22.67;20.99;97255.59;5062548;28;954;-76
2021/03/23 02:45:54;;;;;;;;;;;;;;;22.51;21.24;97259.50;5063859;28;642;-76
2021/03/23 02:48:19;;;;;;;;;;;;;;;22.20;21.88;97257.53;5045097;28;630;-76
2021/03/23 02:50:45;;;;;;;;;;;;;;;21.20;22.93;97244.38;5063755;28;1906;-77
2021/03/23 02:53:10;;;;;;;;;;;;;;;21.84;22.18;97253.25;5062501;28;706;-76
2021/03/23 02:55:35;;;;;;;;;;;;;;;22.02;21.88;97246.09;5063033;28;841;-77
2021/03/23 02:58:01;;;;;;;;;;;;;;;22.38;21.35;97244.66;5062464;28;927;-76
2021/03/23 03:00:27;;;;;;;;;;;;;;;22.65;21.25;97233.38;5063012;28;1019;-77
2021/03/23 03:02:52;;;;;;;;;;;;;;;22.20;21.55;97249.03;5062363;28;678;-77
2021/03/23 03:05:17;;;;;;;;;;;;;;;21.81;22.00;97254.19;5062993;28;647;-77
2021/03/23 03:07:43;;;;;;;;;;;;;;;21.62;22.45;97252.53;5063198;28;679;-77
2021/03/23 03:10:09;;;;;;;;;;;;;;;22.09;22.14;97262.81;5062110;28;1958;-77
2021/03/23 03:12:34;;;;;;;;;;;;;;;22.24;21.50;97263.84;5062642;28;877;-76
2021/03/23 03:15:00;;;;;;;;;;;;;;;22.40;21.60;97271.28;5044553;28;933;-77
2021/03/23 03:17:31;;;;;;;;;;;;;;;22.58;21.06;97276.19;5063016;28;702;-77
2021/03/23 03:19:56;;;;;;;;;;;;;;;22.07;21.67;97270.97;5062069;28;722;-77
2021/03/23 03:22:24;;;;;;;;;;;;;;;21.71;22.37;97272.41;5062721;28;636;-76
2021/03/23 03:24:50;;;;;;;;;;;;;;;21.92;21.89;97278.47;5044743;28;874;-77
2021/03/23 03:27:15;;;;;;;;;;;;;;;22.24;21.60;97286.50;5045278;28;971;-77
2021/03/23 03:29:41;;;;;;;;;;;;;;;22.89;20.74;97295.97;5061700;28;1906;-77
2021/03/23 03:32:06;;;;;;;;;;;;;;;22.27;21.70;97290.44;5062681;28;619;-77
2021/03/23 03:34:32;;;;;;;;;;;;;;;21.92;22.06;97284.16;5044479;28;817;-77
2021/03/23 03:36:57;;;;;;;;;;;;;;;21.62;22.62;97292.16;5044742;28;975;-77
2021/03/23 03:39:23;;;;;;;;;;;;;;;22.09;21.77;97286.25;5044151;28;1128;-77
2021/03/23 03:41:48;;;;;;;;;;;;;;;22.42;21.36;97291.44;5045247;28;1098;-77
2021/03/23 03:44:14;;;;;;;;;;;;;;;22.53;21.20;97288.16;5061937;28;646;-77
2021/03/23 03:46:39;;;;;;;;;;;;;;;22.38;21.28;97298.50;5045270;28;702;-77
2021/03/23 03:49:04;;;;;;;;;;;;;;;21.84;22.19;97298.56;5044467;28;1918;-77
2021/03/23 03:51:30;;;;;;;;;;;;;;;21.68;22.31;97301.63;5062161;28;975;-77
2021/03/23 03:53:55;;;;;;;;;;;;;;;21.84;22.16;97292.91;5061457;28;829;-77
2021/03/23 03:56:21;;;;;;;;;;;;;;;22.35;21.42;97303.09;5062337;28;834;-77
2021/03/23 03:58:46;;;;;;;;;;;;;;;22.49;21.18;97302.50;5061531;28;646;-77
2021/03/23 04:01:12;;;;;;;;;;;;;;;22.60;21.24;97313.41;5062605;28;599;-77
2021/03/23 04:03:37;;;;;;;;;;;;;;;22.53;21.01;97316.50;5043437;28;1055;-77
2021/03/23 04:06:03;;;;;;;;;;;;;;;21.97;22.14;97315.50;5044768;28;833;-77
2021/03/23 04:08:29;;;;;;;;;;;;;;;21.38;22.34;97319.34;5060961;28;1035;-77
2021/03/23 04:10:55;;;;;;;;;;;;;;;21.89;21.99;97321.88;5044749;28;1996;-77
2021/03/23 04:13:20;;;;;;;;;;;;;;;22.24;21.83;97320.53;5061181;28;685;-77
2021/03/23 04:15:46;;;;;;;;;;;;;;;22.55;21.06;97322.53;5062467;28;655;-77
2021/03/23 04:18:12;;;;;;;;;;;;;;;22.58;20.91;97311.00;5044023;28;1022;-77
2021/03/23 04:20:38;;;;;;;;;;;;;;;21.85;21.87;97319.19;5044743;28;944;-77
2021/03/23 04:23:04;;;;;;;;;;;;;;;21.97;21.74;97317.53;5044303;28;868;-77
2021/03/23 04:25:30;;;;;;;;;;;;;;;21.67;22.16;97327.56;5044665;28;606;-77
2021/03/23 04:27:56;;;;;;;;;;;;;;;22.79;20.92;97332.03;5044864;28;719;-77
2021/03/23 04:30:21;;;;;;;;;;;;;;;22.91;20.73;97333.19;5043986;28;1906;-76
2021/03/23 04:32:47;;;;;;;;;;;;;;;22.24;21.60;97325.41;5043786;28;770;-77
2021/03/23 04:35:31;;;;;;;;;;;;;;;21.89;21.90;97327.53;5027115;28;958;-75
2021/03/23 04:37:57;;;;;;;;;;;;;;;21.82;21.91;97328.63;5060685;28;1087;-75
2021/03/23 04:40:22;;;;;;;;;;;;;;;22.48;21.05;97342.63;5060242;28;1138;-77
2021/03/23 04:42:48;;;;;;;;;;;;;;;22.83;20.55;97354.56;5044517;28;741;-77
2021/03/23 04:45:13;;;;;;;;;;;;;;;22.76;20.64;97355.66;5044232;28;756;-77
2021/03/23 04:47:39;;;;;;;;;;;;;;;22.55;21.06;97362.22;5061225;28;587;-77
2021/03/23 04:50:04;;;;;;;;;;;;;;;21.83;21.80;97352.84;5060543;28;1979;-77
2021/03/23 04:52:30;;;;;;;;;;;;;;;21.90;21.71;97363.91;5061797;28;910;-76
2021/03/23 04:54:55;;;;;;;;;;;;;;;22.01;21.67;97357.81;5042932;28;962;-77
2021/03/23 04:57:21;;;;;;;;;;;;;;;22.04;21.52;97374.69;5061672;28;678;-78
2021/03/23 04:59:46;;;;;;;;;;;;;;;22.63;20.90;97381.28;5060793;28;654;-77
2021/03/23 05:02:12;;;;;;;;;;;;;;;22.58;20.93;97379.06;5061746;28;571;-76
2021/03/23 05:04:37;;;;;;;;;;;;;;;22.66;20.93;97382.41;5060830;28;702;-76
2021/03/23 05:07:03;;;;;;;;;;;;;;;22.07;21.39;97387.13;5060017;28;1072;-75
2021/03/23 05:09:28;;;;;;;;;;;;;;;21.68;22.02;97392.22;5059190;28;1969;-76
2021/03/23 05:11:53;;;;;;;;;;;;;;;21.85;21.78;97390.78;5060705;28;866;-76
2021/03/23 05:14:19;;;;;;;;;;;;;;;22.32;21.06;97395.47;5059833;28;724;-75
2021/03/23 05:16:44;;;;;;;;;;;;;;;22.52;20.88;97391.50;5059557;28;642;-73
2021/03/23 05:19:10;;;;;;;;;;;;;;;22.72;20.76;97389.03;5059468;28;449;-73
2021/03/23 05:21:35;;;;;;;;;;;;;;;22.06;21.62;97394.06;5059808;28;890;-73
2021/03/23 05:24:02;;;;;;;;;;;;;;;21.91;21.58;97393.78;5063114;28;815;-73
2021/03/23 05:26:27;;;;;;;;;;;;;;;21.77;22.23;97394.34;5062901;28;966;-74
2021/03/23 05:28:53;;;;;;;;;;;;;;;21.87;21.72;97403.69;5063187;28;678;-73
2021/03/23 05:31:18;;;;;;;;;;;;;;;21.88;21.48;97405.28;5062799;28;1906;-74
2021/03/23 05:33:44;;;;;;;;;;;;;;;21.88;21.70;97413.78;5062888;28;687;-74
2021/03/23 05:36:09;;;;;;;;;;;;;;;21.76;21.90;97399.22;5062614;28;845;-73
2021/03/23 05:38:34;;;;;;;;;;;;;;;21.62;22.25;97408.22;5062336;28;961;-74
2021/03/23 05:41:01;;;;;;;;;;;;;;;22.01;21.81;97408.81;5062765;28;1008;-74
2021/03/23 05:43:32;;;;;;;;;;;;;;;22.15;21.34;97404.69;5045476;28;618;-74
2021/03/23 05:46:02;;;;;;;;;;;;;;;22.47;20.92;97412.72;5063270;28;719;-73
2021/03/23 05:48:28;;;;;;;;;;;;;;;22.31;21.23;97408.09;5062904;28;765;-72
2021/03/23 05:51:02;;;;;;;;;;;;;;;21.93;21.65;97418.84;5044933;28;1985;-74
2021/03/23 05:53:28;;;;;;;;;;;;;;;21.63;22.09;97423.16;5044787;28;921;-74
2021/03/23 05:55:54;;;;;;;;;;;;;;;21.72;21.71;97418.38;5062604;28;886;-73
2021/03/23 05:58:26;;;;;;;;;;;;;;;21.50;22.02;97426.03;5045112;28;583;-74
2021/03/23 06:00:56;;;;;;;;;;;;;;;21.75;22.13;97425.16;5045420;28;619;-74
2021/03/23 06:03:24;;;;;;;;;;;;;;;22.95;20.24;97418.94;5062292;28;662;-74
2021/03/23 06:06:07;;;;;;;;;;;;;;;22.50;20.88;97411.03;5044831;28;933;-73
2021/03/23 06:08:33;;;;;;;;;;;;;;;22.03;21.56;97400.66;5044409;28;1057;-73
2021/03/23 06:11:05;;;;;;;;;;;;;;;21.49;22.11;97396.16;5045029;28;1975;-73
2021/03/23 06:13:46;;;;;;;;;;;;;;;21.79;21.74;97392.63;5062169;28;637;-73
2021/03/23 06:16:24;;;;;;;;;;;;;;;21.70;21.64;97395.38;5044851;28;690;-73
2021/03/23 06:19:05;;;;;;;;;;;;;;;21.47;21.96;97393.78;5062218;28;611;-72
2021/03/23 06:21:42;;;;;;;;;;;;;;;22.91;20.32;97389.94;5061670;28;1042;-72
2021/03/23 06:24:10;;;;;;;;;;;;;;;22.33;20.65;97391.41;5062007;28;807;-73
2021/03/23 06:26:46;;;;;;;;;;;;;;;21.81;21.46;97406.31;5061412;28;1063;-73
2021/03/23 06:29:14;;;;;;;;;;;;;;;22.07;21.03;97401.28;5044503;28;1955;-73
2021/03/23 06:31:46;;;;;;;;;;;;;;;21.89;21.37;97412.50;5044125;28;622;-74
2021/03/23 06:34:15;;;;;;;;;;;;;;;22.29;20.58;97413.44;5060959;28;956;-73
2021/03/23 06:36:40;;;;;;;;;;;;;;;21.78;21.49;97412.91;5061273;28;805;-74
2021/03/23 06:39:06;;;;;;;;;;;;;;;21.42;21.72;97413.41;5061646;28;987;-73
2021/03/23 06:41:32;;;;;;;;;;;;;;;21.76;21.60;97424.72;5061561;28;710;-75
2021/03/23 06:43:58;;;;;;;;;;;;;;;22.26;20.72;97408.69;5061700;28;685;-74
2021/03/23 06:46:26;;;;;;;;;;;;;;;22.55;20.27;97418.91;5061745;28;862;-75
2021/03/23 06:49:00;;;;;;;;;;;;;;;22.24;20.69;97419.72;5061720;28;782;-75
2021/03/23 06:51:26;;;;;;;;;;;;;;;21.72;21.46;97414.75;5062023;28;1979;-76
2021/03/23 06:53:51;;;;;;;;;;;;;;;21.77;21.21;97417.00;5061379;28;713;-76
2021/03/23 06:56:17;;;;;;;;;;;;;;;21.84;21.01;97416.72;5044635;28;626;-74
2021/03/23 06:58:42;;;;;;;;;;;;;;;21.16;21.87;97424.75;5061619;28;664;-75
2021/03/23 07:01:11;;;;;;;;;;;;;;;22.39;20.80;97410.66;5040414;28;1212;-76
2021/03/23 07:03:36;;;;;;;;;;;;;;;22.70;19.96;97414.25;5060714;28;850;-76
2021/03/23 07:06:02;;;;;;;;;;;;;;;22.57;20.20;97422.06;5062297;28;834;-75
2021/03/23 07:08:27;;;;;;;;;;;;;;;21.84;20.92;97426.00;5040481;28;1119;-74
2021/03/23 07:10:53;;;;;;;;;;;;;;;21.74;20.90;97427.19;5041426;28;1909;-74
2021/03/23 07:13:24;;;;;;;;;;;;;;;21.79;20.93;97432.25;5040827;28;622;-73
2021/03/23 07:15:57;;;;;;;;;;;;;;;21.59;21.41;97420.47;5040989;28;1079;-74
2021/03/23 07:18:22;;;;;;;;;;;;;;;22.10;20.73;97429.53;5040646;28;892;-74
2021/03/23 07:20:49;;;;;;;;;;;;;;;21.83;20.78;97427.28;5040908;28;599;-75
2021/03/23 07:23:23;;;;;;;;;;;;;;;21.93;20.69;97430.19;5040440;28;650;-76
2021/03/23 07:25:49;;;;;;;;;;;;;;;21.04;21.91;97434.06;5041266;28;670;-75
2021/03/23 07:28:21;;;;;;;;;;;;;;;21.76;21.00;97432.38;5040928;28;642;-73
2021/03/23 07:30:50;;;;;;;;;;;;;;;22.63;19.91;97425.88;5040183;28;1890;-74
2021/03/23 07:33:36;;;;;;;;;;;;;;;22.69;19.68;97424.03;5040440;28;885;-74
2021/03/23 07:36:01;;;;;;;;;;;;;;;22.30;20.14;97408.56;5041076;28;666;-76
2021/03/23 07:38:48;;;;;;;;;;;;;;;22.03;20.70;97400.66;5040066;28;646;-76
2021/03/23 07:41:24;;;;;;;;;;;;;;;21.58;21.12;97405.50;5040035;28;754;-74
2021/03/23 07:43:52;;;;;;;;;;;;;;;21.74;20.81;97390.38;5040131;28;666;-73
2021/03/23 07:46:21;;;;;;;;;;;;;;;22.67;19.49;97403.84;5039517;28;934;-75
2021/03/23 07:48:50;;;;;;;;;;;;;;;22.85;19.31;97392.56;5040251;28;809;-76
2021/03/23 07:51:15;;;;;;;;;;;;;;;22.08;20.23;97385.91;5041261;28;1898;-74
2021/03/23 07:53:41;;;;;;;;;;;;;;;21.82;20.63;97399.41;5040359;28;763;-75
2021/03/23 07:56:13;;;;;;;;;;;;;;;21.33;21.08;97395.06;5039049;28;888;-75
2021/03/23 07:58:52;;;;;;;;;;;;;;;22.62;19.94;97401.63;5039456;28;892;-75
2021/03/23 08:01:24;;;;;;;;;;;;;;;22.73;19.34;97393.47;5038830;28;928;-75
2021/03/23 08:03:49;;;;;;;;;;;;;;;22.31;19.50;97388.25;5038963;28;1258;-73
2021/03/23 08:06:27;;;;;;;;;;;;;;;21.93;20.20;97391.31;5040074;28;662;-73
2021/03/23 08:09:05;;;;;;;;;;;;;;;21.35;21.00;97391.00;5049020;28;1031;-74
2021/03/23 08:11:39;;;;;;;;;;;;;;;21.80;20.81;97388.53;5042906;28;1913;-75
2021/03/23 08:14:23;;;;;;;;;;;;;;;21.96;20.20;97395.25;5060166;28;674;-74
2021/03/23 08:16:52;;;;;;;;;;;;;;;21.83;20.39;97381.94;5060709;28;875;-74
2021/03/23 08:19:20;;;;;;;;;;;;;;;21.51;20.84;97388.00;5060092;28;852;-75
2021/03/23 08:21:52;;;;;;;;;;;;;;;21.53;21.07;97385.50;5060992;28;615;-76
2021/03/23 08:24:20;;;;;;;;;;;;;;;22.33;20.16;97380.09;5058876;28;964;-76
2021/03/23 08:26:55;;;;;;;;;;;;;;;23.00;19.25;97370.09;5060246;28;805;-75
2021/03/23 08:29:20;;;;;;;;;;;;;;;22.27;19.74;97359.25;5059887;28;1969;-74
2021/03/23 08:31:55;;;;;;;;;;;;;;;22.01;20.10;97340.81;5060079;28;881;-76
2021/03/23 08:34:24;;;;;;;;;;;;;;;21.61;20.82;97347.19;5059608;28;856;-74
2021/03/23 08:37:08;;;;;;;;;;;;;;;21.90;20.32;97346.91;5060476;28;983;-75
2021/03/23 08:39:52;;;;;;;;;;;;;;;21.82;20.45;97351.28;5041807;28;880;-75
2021/03/23 08:42:19;;;;;;;;;;;;;;;21.76;20.62;97331.25;5059712;28;702;-74
2021/03/23 08:44:46;;;;;;;;;;;;;;;21.71;20.77;97322.53;5059619;28;634;-74
2021/03/23 08:47:11;;;;;;;;;;;;;;;21.78;20.74;97323.09;5059350;28;949;-73
2021/03/23 08:49:37;;;;;;;;;;;;;;;22.29;20.02;97336.91;5058990;28;1897;-73
2021/03/23 08:52:04;;;;;;;;;;;;;;;23.02;19.05;97321.38;5042257;28;857;-74
2021/03/23 08:54:44;;;;;;;;;;;;;;;22.15;19.81;97299.84;5042319;28;1409;-74
2021/03/23 08:57:09;;;;;;;;;;;;;;;22.03;20.14;97315.69;5063494;28;669;-75
2021/03/23 08:59:34;;;;;;;;;;;;;;;21.02;21.64;97312.88;5064404;28;677;-76
2021/03/23 09:02:01;;;;;;;;;;;;;;;22.38;19.72;97318.34;5064779;28;913;-76
2021/03/23 09:04:28;;;;;;;;;;;;;;;23.01;18.98;97302.78;5063253;28;872;-74
2021/03/23 09:06:59;;;;;;;;;;;;;;;22.28;19.65;97297.72;5046076;28;889;-73
2021/03/23 09:09:27;;;;;;;;;;;;;;;20.90;21.66;97310.09;5062796;28;1905;-73
2021/03/23 09:12:11;;;;;;;;;;;;;;;21.94;20.47;97305.06;5063352;28;810;-75
2021/03/23 09:14:55;;;;;;;;;;;;;;;22.17;19.85;97308.66;5063273;28;650;-76
2021/03/23 09:17:30;;;;;;;;;;;;;;;21.88;20.38;97308.97;5063334;28;849;-75
2021/03/23 09:19:56;;;;;;;;;;;;;;;21.72;20.72;97307.94;5045719;28;1388;-75
2021/03/23 09:22:24;;;;;;;;;;;;;;;21.51;20.83;97317.25;5046419;28;626;-73
2021/03/23 09:24:50;;;;;;;;;;;;;;;21.30;21.16;97305.47;5063355;28;674;-74
2021/03/23 09:27:24;;;;;;;;;;;;;;;21.43;20.78;97319.53;5046945;28;1412;-76
2021/03/23 09:29:50;;;;;;;;;;;;;;;22.61;19.43;97312.94;5063261;28;1906;-75
2021/03/23 09:32:16;;;;;;;;;;;;;;;22.60;19.48;97316.25;5046128;28;833;-76
2021/03/23 09:35:00;;;;;;;;;;;;;;;22.04;20.18;97311.56;5063135;28;900;-75
2021/03/23 09:37:33;;;;;;;;;;;;;;;21.57;20.79;97313.34;5046642;28;660;-76
2021/03/23 09:39:58;;;;;;;;;;;;;;;22.00;20.03;97316.59;5063181;28;654;-76
2021/03/23 09:42:24;;;;;;;;;;;;;;;22.54;19.30;97316.06;5063655;28;642;-76
2021/03/23 09:45:08;;;;;;;;;;;;;;;22.65;19.07;97321.28;5046016;28;821;-73
2021/03/23 09:47:37;;;;;;;;;;;;;;;22.02;19.94;97325.41;5063459;28;1031;-75
2021/03/23 09:50:02;;;;;;;;;;;;;;;21.75;20.30;97324.00;5062299;28;1898;-74
2021/03/23 09:52:28;;;;;;;;;;;;;;;21.86;20.13;97326.41;5063430;28;662;-75
2021/03/23 09:54:54;;;;;;;;;;;;;;;21.83;20.33;97330.19;5045870;28;702;-74
2021/03/23 09:57:20;;;;;;;;;;;;;;;22.23;19.91;97335.16;5045866;28;915;-75
2021/03/23 09:59:47;;;;;;;;;;;;;;;22.42;19.74;97341.69;5045428;28;642;-74
2021/03/23 10:02:31;;;;;;;;;;;;;;;22.42;19.34;97331.13;5062992;28;623;-75
2021/03/23 10:05:17;;;;;;;;;;;;;;;21.88;20.33;97338.09;5062591;28;694;-72
2021/03/23 10:07:43;;;;;;;;;;;;;;;21.79;20.47;97335.97;5060939;28;1007;-74
2021/03/23 10:10:16;;;;;;;;;;;;;;;21.83;20.20;97335.84;5061722;28;1901;-72
2021/03/23 10:12:41;;;;;;;;;;;;;;;21.80;20.13;97337.56;5045049;28;615;-74
2021/03/23 10:15:17;;;;;;;;;;;;;;;21.60;20.29;97345.59;5062471;28;634;-72
2021/03/23 10:17:42;;;;;;;;;;;;;;;21.79;20.27;97335.97;5045090;28;630;-75
2021/03/23 10:20:09;;;;;;;;;;;;;;;22.58;19.18;97350.72;5061993;28;630;-73
2021/03/23 10:22:37;;;;;;;;;;;;;;;22.56;19.29;97341.88;5062577;28;654;-74
2021/03/23 10:25:04;;;;;;;;;;;;;;;22.40;19.58;97341.38;5062438;28;619;-73
2021/03/23 10:27:36;;;;;;;;;;;;;;;21.84;20.18;97349.53;5044477;28;1068;-73
2021/03/23 10:30:15;;;;;;;;;;;;;;;21.92;20.12;97346.47;5044329;28;1903;-74
2021/03/23 10:32:47;;;;;;;;;;;;;;;22.00;19.91;97356.25;5062662;28;806;-74
2021/03/23 10:35:24;;;;;;;;;;;;;;;21.82;20.14;97352.06;5062045;28;633;-74
2021/03/23 10:38:09;;;;;;;;;;;;;;;22.04;19.67;97356.91;5062433;28;635;-74
2021/03/23 10:40:36;;;;;;;;;;;;;;;21.82;20.09;97357.72;5061847;28;1146;-74
2021/03/23 10:43:02;;;;;;;;;;;;;;;21.66;20.49;97366.44;5061834;28;802;-74
2021/03/23 10:45:28;;;;;;;;;;;;;;;21.77;20.09;97372.47;5061454;28;842;-74
2021/03/23 10:48:08;;;;;;;;;;;;;;;21.73;20.45;97371.81;5061619;28;829;-73
2021/03/23 10:50:35;;;;;;;;;;;;;;;21.68;20.27;97380.91;5061885;28;1902;-75
2021/03/23 10:53:08;;;;;;;;;;;;;;;21.53;20.54;97371.34;5044516;28;615;-75
2021/03/23 10:55:34;;;;;;;;;;;;;;;21.85;20.22;97361.66;5061336;28;876;-74
2021/03/23 10:58:16;;;;;;;;;;;;;;;21.44;20.57;97371.25;5044060;28;955;-75
2021/03/23 11:00:41;;;;;;;;;;;;;;;22.49;19.31;97359.19;5061636;28;602;-73
2021/03/23 11:03:13;;;;;;;;;;;;;;;22.51;19.20;97361.56;5044206;28;651;-75
2021/03/23 11:05:42;;;;;;;;;;;;;;;22.16;19.61;97361.72;5061232;28;714;-74
2021/03/23 11:08:09;;;;;;;;;;;;;;;21.82;20.25;97354.09;5061381;28;1048;-74
2021/03/23 11:10:35;;;;;;;;;;;;;;;21.79;20.30;97352.97;5042521;28;1975;-76
2021/03/23 11:13:01;;;;;;;;;;;;;;;21.72;20.36;97347.59;5044252;28;838;-74
2021/03/23 11:15:31;;;;;;;;;;;;;;;21.95;19.97;97359.69;5042250;28;1127;-75
2021/03/23 11:17:57;;;;;;;;;;;;;;;22.28;19.54;97360.06;5060713;28;841;-76
2021/03/23 11:20:24;;;;;;;;;;;;;;;22.47;19.36;97355.25;5042932;28;1218;-67
2021/03/23 11:22:52;;;;;;;;;;;;;;;22.30;19.45;97352.66;5060799;28;666;-74
2021/03/23 11:25:18;;;;;;;;;;;;;;;21.99;20.04;97355.47;5043586;28;622;-73
2021/03/23 11:27:44;;;;;;;;;;;;;;;21.64;20.52;97334.94;5060605;28;926;-74
2021/03/23 11:30:09;;;;;;;;;;;;;;;21.84;20.25;97343.88;5060120;28;1893;-74
2021/03/23 11:32:35;;;;;;;;;;;;;;;21.72;20.35;97341.94;5060802;28;920;-75
2021/03/23 11:35:00;;;;;;;;;;;;;;;22.46;19.38;97353.66;5060592;28;692;-74
2021/03/23 11:37:32;;;;;;;;;;;;;;;22.63;19.09;97346.47;5060884;28;602;-75
2021/03/23 11:39:57;;;;;;;;;;;;;;;22.07;20.00;97347.47;5060505;28;634;-75
2021/03/23 11:42:29;;;;;;;;;;;;;;;21.81;20.32;97350.50;5060425;28;857;-75
2021/03/23 11:44:56;;;;;;;;;;;;;;;21.82;19.94;97352.06;5043019;28;886;-76
2021/03/23 11:47:28;;;;;;;;;;;;;;;22.28;19.69;97343.84;5044242;28;976;-76
2021/03/23 11:50:11;;;;;;;;;;;;;;;22.45;19.26;97354.94;5043324;28;1906;-75
2021/03/23 11:52:37;;;;;;;;;;;;;;;22.12;19.58;97346.88;5060779;28;675;-75
2021/03/23 11:55:08;;;;;;;;;;;;;;;21.83;20.02;97341.53;5060485;28;595;-75
2021/03/23 11:57:33;;;;;;;;;;;;;;;21.73;20.06;97337.84;5060394;28;835;-75
2021/03/23 11:59:59;;;;;;;;;;;;;;;22.26;19.49;97334.22;5059885;28;831;-72
2021/03/23 12:02:28;;;;;;;;;;;;;;;23.04;19.12;97331.00;5060211;28;992;-71
2021/03/23 12:04:54;;;;;;;;;;;;;;;21.92;20.57;97335.13;5059933;28;642;-67
2021/03/23 12:07:19;;;;;;;;;;;;;;;21.95;21.11;97322.84;5070856;28;836;-71
2021/03/23 12:09:50;;;;;;;;;;;;;;;22.26;20.72;97340.66;5079720;28;1909;-72
2021/03/23 12:12:29;;;;;;;;;;;;;;;22.24;21.01;97326.19;5079644;28;901;-71
2021/03/23 12:15:02;;;;;;;;;;;;;;;22.79;20.38;97331.22;5062380;28;906;-71
2021/03/23 12:17:27;;;;;;;;;;;;;;;22.71;20.65;97329.97;5063431;28;626;-73
2021/03/23 12:19:56;;;;;;;;;;;;;;;22.63;20.73;97329.47;5062540;28;590;-70
2021/03/23 12:22:21;;;;;;;;;;;;;;;22.27;21.34;97339.41;5080176;28;634;-73
2021/03/23 12:24:48;;;;;;;;;;;;;;;22.45;21.23;97329.41;5079891;28;594;-75
2021/03/23 12:27:15;;;;;;;;;;;;;;;22.59;20.94;97334.50;5079577;28;876;-73
2021/03/23 12:29:40;;;;;;;;;;;;;;;22.66;20.76;97339.88;5079607;28;1906;-73
2021/03/23 12:32:07;;;;;;;;;;;;;;;22.39;21.12;97336.97;5083275;28;976;-73
2021/03/23 12:34:33;;;;;;;;;;;;;;;22.52;21.23;97338.41;5083891;28;622;-74
2021/03/23 12:36:58;;;;;;;;;;;;;;;22.58;21.07;97332.91;5083938;28;662;-72
2021/03/23 12:39:23;;;;;;;;;;;;;;;23.01;20.49;97331.94;5066397;28;959;-73
2021/03/23 12:41:49;;;;;;;;;;;;;;;22.95;20.49;97336.69;5083642;28;926;-71
2021/03/23 12:44:16;;;;;;;;;;;;;;;22.69;20.85;97327.63;5083128;28;854;-72
2021/03/23 12:46:41;;;;;;;;;;;;;;;22.42;21.14;97336.00;5083593;28;956;-73
2021/03/23 12:49:07;;;;;;;;;;;;;;;22.33;21.60;97329.06;5083496;28;749;-72
2021/03/23 12:51:44;;;;;;;;;;;;;;;22.51;21.09;97336.06;5083524;28;1906;-74
2021/03/23 12:54:12;;;;;;;;;;;;;;;22.42;21.40;97336.00;5066228;28;603;-73
2021/03/23 12:56:38;;;;;;;;;;;;;;;22.77;20.75;97337.38;5083462;28;610;-75
2021/03/23 12:59:03;;;;;;;;;;;;;;;22.99;20.54;97333.66;5083554;28;750;-74
2021/03/23 13:01:29;;;;;;;;;;;;;;;22.74;20.77;97340.34;5083108;28;869;-72
2021/03/23 13:03:54;;;;;;;;;;;;;;;22.49;21.02;97335.75;5083047;28;863;-73
2021/03/23 13:06:23;;;;;;;;;;;;;;;22.29;21.47;97345.41;5082932;28;873;-73
2021/03/23 13:08:48;;;;;;;;;;;;;;;22.17;21.24;97337.78;5083048;28;1205;-73
2021/03/23 13:11:14;;;;;;;;;;;;;;;21.93;21.59;97354.50;5083152;28;1979;-74